createdAt,value
2019-04-04T00:00:31.697Z,38.30
2019-04-04T00:03:01.433Z,34.13
2019-04-04T00:05:31.078Z,37.20
2019-04-04T00:08:02.680Z,36.40
2019-04-04T00:10:32.849Z,33.83
2019-04-04T00:13:03.922Z,42.57
2019-04-04T00:15:34.599Z,38.30
2019-04-04T00:18:04.331Z,37.43
2019-04-04T00:20:34.163Z,36.00
2019-04-04T00:23:05.021Z,40.23
2019-04-04T00:25:35.353Z,37.33
2019-04-04T00:28:05.034Z,41.13
2019-04-04T00:30:34.771Z,41.77
2019-04-04T00:33:04.530Z,31.57
2019-04-04T00:35:34.187Z,40.37
2019-04-04T00:38:06.693Z,45.67
2019-04-04T00:40:35.124Z,47.60
2019-04-04T00:43:05.882Z,44.33
2019-04-04T00:45:35.584Z,40.00
2019-04-04T00:48:05.352Z,47.43
2019-04-04T00:50:36.750Z,49.30
2019-04-04T00:53:06.409Z,45.77
2019-04-04T00:55:36.226Z,54.13
2019-04-04T00:58:05.913Z,55.13
2019-04-04T01:00:35.945Z,48.17
2019-04-04T01:03:05.567Z,56.73
2019-04-04T01:05:35.220Z,54.23
2019-04-04T01:08:06.648Z,56.27
2019-04-04T01:10:36.230Z,53.43
2019-04-04T01:13:05.842Z,53.53
2019-04-04T01:15:35.577Z,60.07
2019-04-04T01:18:17.182Z,56.97
2019-04-04T01:20:46.862Z,57.43
2019-04-04T01:23:17.050Z,56.17
2019-04-04T01:25:46.658Z,54.27
2019-04-04T01:28:16.314Z,55.03
2019-04-04T01:30:46.086Z,58.83
2019-04-04T01:33:15.742Z,58.90
2019-04-04T01:35:45.344Z,55.93
2019-04-04T01:38:15.037Z,54.03
2019-04-04T01:40:45.149Z,55.67
2019-04-04T01:43:14.778Z,51.77
2019-04-04T01:45:44.945Z,46.83
2019-04-04T01:48:14.707Z,48.60
2019-04-04T01:50:44.330Z,50.63
2019-04-04T01:53:14.005Z,56.83
2019-04-04T01:55:43.618Z,46.67
2019-04-04T01:58:13.223Z,55.90
2019-04-04T02:00:45.641Z,57.20
2019-04-04T02:03:14.169Z,55.20
2019-04-04T02:05:43.797Z,57.73
2019-04-04T02:08:13.555Z,60.87
2019-04-04T02:10:43.443Z,64.53
2019-04-04T02:13:13.110Z,61.07
2019-04-04T02:15:44.597Z,67.43
2019-04-04T02:18:14.074Z,65.77
2019-04-04T02:20:43.725Z,58.00
2019-04-04T02:23:13.346Z,63.67
2019-04-04T02:25:43.001Z,64.03
2019-04-04T02:28:12.644Z,71.87
2019-04-04T02:30:42.357Z,67.63
2019-04-04T02:33:12.019Z,67.10
2019-04-04T02:35:43.723Z,71.53
2019-04-04T02:38:13.017Z,59.70
2019-04-04T02:40:42.723Z,68.07
2019-04-04T02:43:12.366Z,55.30
2019-04-04T02:45:42.089Z,64.87
2019-04-04T02:48:13.085Z,57.47
2019-04-04T02:50:42.692Z,53.60
2019-04-04T02:53:12.603Z,58.87
2019-04-04T02:55:42.295Z,64.70
2019-04-04T02:58:15.113Z,60.80
2019-04-04T03:00:43.234Z,51.73
2019-04-04T03:03:16.205Z,52.20
2019-04-04T03:05:50.820Z,47.30
2019-04-04T03:08:18.377Z,55.87
2019-04-04T03:10:49.396Z,49.10
2019-04-04T03:13:19.395Z,48.33
2019-04-04T03:15:50.204Z,52.20
2019-04-04T03:18:21.161Z,48.43
2019-04-04T03:20:50.847Z,49.07
2019-04-04T03:23:20.490Z,49.30
2019-04-04T03:25:50.194Z,46.10
2019-04-04T03:28:19.885Z,45.63
2019-04-04T03:31:00.627Z,41.57
2019-04-04T03:33:29.194Z,40.83
2019-04-04T03:35:59.877Z,41.47
2019-04-04T03:38:26.828Z,39.67
2019-04-04T03:40:59.779Z,39.33
2019-04-04T03:43:29.754Z,40.23
2019-04-04T03:46:01.327Z,38.67
2019-04-04T03:48:30.889Z,32.80
2019-04-04T03:51:03.461Z,37.53
2019-04-04T03:53:31.967Z,37.67
2019-04-04T03:56:01.869Z,33.43
2019-04-04T03:58:32.078Z,45.93
2019-04-04T04:01:01.703Z,29.57
2019-04-04T04:03:31.407Z,41.43
2019-04-04T04:06:01.121Z,34.77
2019-04-04T04:08:30.919Z,38.47
2019-04-04T04:11:04.824Z,38.00
2019-04-04T04:13:32.990Z,32.93
2019-04-04T04:16:03.842Z,34.37
2019-04-04T04:18:33.652Z,32.73
2019-04-04T04:21:03.353Z,34.53
2019-04-04T04:23:32.998Z,30.57
2019-04-04T04:26:02.622Z,31.07
2019-04-04T04:28:32.326Z,34.13
2019-04-04T04:31:02.626Z,30.77
2019-04-04T04:33:32.419Z,32.00
2019-04-04T04:36:02.067Z,30.93
2019-04-04T04:38:31.761Z,31.13
2019-04-04T04:41:01.474Z,32.60
2019-04-04T04:43:33.510Z,31.73
2019-04-04T04:46:02.654Z,34.77
2019-04-04T04:48:32.260Z,38.20
2019-04-04T04:51:01.878Z,32.40
2019-04-04T04:53:31.482Z,37.47
2019-04-04T04:56:01.446Z,38.93
2019-04-04T04:58:31.073Z,41.73
2019-04-04T05:01:00.899Z,38.97
2019-04-04T05:03:30.522Z,38.47
2019-04-04T05:06:02.317Z,40.20
2019-04-04T05:08:31.589Z,35.87
2019-04-04T05:11:01.226Z,37.37
2019-04-04T05:13:30.885Z,39.60
2019-04-04T05:16:03.959Z,33.43
2019-04-04T05:18:31.836Z,36.07
2019-04-04T05:21:02.478Z,44.03
2019-04-04T05:23:32.338Z,35.33
2019-04-04T05:26:03.061Z,38.57
2019-04-04T05:28:33.014Z,35.17
2019-04-04T05:31:02.630Z,42.63
2019-04-04T05:33:32.274Z,40.87
2019-04-04T05:36:05.006Z,33.63
2019-04-04T05:38:34.000Z,34.23
2019-04-04T05:41:03.772Z,32.77
2019-04-04T05:43:37.060Z,32.57
2019-04-04T05:46:05.196Z,41.90
2019-04-04T05:48:34.820Z,35.40
2019-04-04T05:51:04.520Z,36.00
2019-04-04T05:53:35.326Z,40.57
2019-04-04T05:56:06.548Z,32.73
2019-04-04T05:58:36.441Z,36.73
2019-04-04T06:01:07.186Z,33.93
2019-04-04T06:03:36.892Z,30.90
2019-04-04T06:06:06.544Z,30.80
2019-04-04T06:08:39.195Z,31.50
2019-04-04T06:11:07.706Z,29.13
2019-04-04T06:13:37.501Z,30.07
2019-04-04T06:16:07.155Z,29.50
2019-04-04T06:18:36.802Z,27.67
2019-04-04T06:21:07.533Z,27.07
2019-04-04T06:23:37.195Z,26.63
2019-04-04T06:26:07.749Z,27.63
2019-04-04T06:28:37.430Z,25.87
2019-04-04T06:31:07.050Z,26.30
2019-04-04T06:33:36.753Z,25.80
2019-04-04T06:36:06.369Z,24.47
2019-04-04T06:38:35.974Z,24.57
2019-04-04T06:41:05.585Z,25.73
2019-04-04T06:43:35.201Z,25.37
2019-04-04T06:46:05.146Z,32.53
2019-04-04T06:48:36.158Z,25.87
2019-04-04T06:51:05.758Z,25.93
2019-04-04T06:53:35.413Z,21.73
2019-04-04T06:56:05.035Z,24.73
2019-04-04T06:58:34.644Z,27.37
2019-04-04T07:01:04.225Z,44.27
2019-04-04T07:03:33.833Z,24.70
2019-04-04T07:06:03.592Z,23.50
2019-04-04T07:08:33.234Z,28.80
2019-04-04T07:11:04.457Z,31.37
2019-04-04T07:13:42.152Z,28.13
2019-04-04T07:16:08.038Z,31.50
2019-04-04T07:18:36.848Z,30.83
2019-04-04T07:21:06.550Z,24.53
2019-04-04T07:23:36.165Z,24.90
2019-04-04T07:26:05.861Z,22.63
2019-04-04T07:28:35.515Z,24.23
2019-04-04T07:31:05.227Z,23.87
2019-04-04T07:33:34.910Z,24.00
2019-04-04T07:36:04.600Z,26.93
2019-04-04T07:38:35.119Z,21.37
2019-04-04T07:41:06.130Z,23.00
2019-04-04T07:43:39.192Z,21.30
2019-04-04T07:46:16.066Z,26.53
2019-04-04T07:48:39.303Z,25.23
2019-04-04T07:51:08.941Z,25.97
2019-04-04T07:53:38.585Z,23.80
2019-04-04T07:56:09.270Z,21.50
2019-04-04T07:58:38.881Z,22.83
2019-04-04T08:01:08.476Z,33.00
2019-04-04T08:03:38.122Z,25.93
2019-04-04T08:06:07.914Z,22.93
2019-04-04T08:08:37.559Z,30.27
2019-04-04T08:11:07.262Z,33.10
2019-04-04T08:13:36.882Z,26.97
2019-04-04T08:16:06.679Z,27.90
2019-04-04T08:18:36.307Z,32.37
2019-04-04T08:21:05.999Z,24.03
2019-04-04T08:23:35.668Z,26.77
2019-04-04T08:26:05.445Z,28.50
2019-04-04T08:28:35.088Z,27.33
2019-04-04T08:31:04.789Z,31.27
2019-04-04T08:33:34.385Z,30.93
2019-04-04T08:36:06.258Z,29.77
2019-04-04T08:38:35.362Z,37.43
2019-04-04T08:41:05.197Z,33.13
2019-04-04T08:43:34.815Z,34.07
2019-04-04T08:46:04.495Z,33.70
2019-04-04T08:48:34.110Z,31.70
2019-04-04T08:51:03.914Z,31.53
2019-04-04T08:53:39.962Z,27.30
2019-04-04T08:56:05.246Z,35.17
2019-04-04T08:58:34.907Z,27.07
2019-04-04T09:01:05.074Z,29.40
2019-04-04T09:03:34.714Z,28.77
2019-04-04T09:06:04.468Z,30.57
2019-04-04T09:08:34.161Z,30.97
2019-04-04T09:11:04.062Z,29.10
2019-04-04T09:13:33.778Z,31.27
2019-04-04T09:16:03.469Z,34.93
2019-04-04T09:18:33.068Z,33.90
2019-04-04T09:21:02.671Z,39.00
2019-04-04T09:23:32.298Z,34.30
2019-04-04T09:26:05.834Z,33.23
2019-04-04T09:28:34.712Z,30.67
2019-04-04T09:31:04.470Z,32.93
2019-04-04T09:33:34.098Z,34.23
2019-04-04T09:36:03.861Z,30.83
2019-04-04T09:38:33.522Z,35.73
2019-04-04T09:41:03.155Z,35.10
2019-04-04T09:43:32.838Z,36.97
2019-04-04T09:46:02.461Z,31.73
2019-04-04T09:48:32.071Z,31.93
2019-04-04T09:51:01.698Z,32.93
2019-04-04T09:53:31.342Z,31.70
2019-04-04T09:56:00.958Z,29.83
2019-04-04T09:58:30.558Z,30.87
2019-04-04T10:01:00.460Z,22.77
2019-04-04T10:03:30.176Z,30.50
2019-04-04T10:06:08.743Z,35.43
2019-04-04T10:08:38.942Z,28.57
2019-04-04T10:11:08.710Z,36.77
2019-04-04T10:13:41.950Z,38.03
2019-04-04T10:16:11.598Z,38.87
2019-04-04T10:18:41.345Z,48.10
2019-04-04T10:21:12.373Z,41.30
2019-04-04T10:23:42.318Z,38.03
2019-04-04T10:26:11.934Z,41.90
2019-04-04T10:28:41.586Z,40.77
2019-04-04T10:31:11.338Z,43.90
2019-04-04T10:33:42.343Z,41.50
2019-04-04T10:36:12.324Z,36.37
2019-04-04T10:38:41.967Z,37.13
2019-04-04T10:41:11.574Z,41.83
2019-04-04T10:43:41.192Z,39.17
2019-04-04T10:46:10.801Z,35.80
2019-04-04T10:48:40.451Z,43.23
2019-04-04T10:51:10.096Z,36.27
2019-04-04T10:53:39.726Z,36.50
2019-04-04T10:56:09.418Z,35.67
2019-04-04T10:58:39.071Z,28.37
2019-04-04T11:01:08.860Z,25.97
2019-04-04T11:03:38.483Z,31.27
2019-04-04T11:06:08.093Z,31.37
2019-04-04T11:08:37.727Z,23.10
2019-04-04T11:11:07.414Z,21.47
2019-04-04T11:13:37.052Z,23.40
2019-04-04T11:16:06.659Z,19.17
2019-04-04T11:18:36.274Z,23.37
2019-04-04T11:21:06.044Z,15.97
2019-04-04T11:23:35.642Z,13.83
2019-04-04T11:26:05.522Z,14.10
2019-04-04T11:28:35.137Z,12.80
2019-04-04T11:31:05.912Z,15.37
2019-04-04T11:33:35.601Z,14.13
2019-04-04T11:36:05.281Z,14.03
2019-04-04T11:38:34.907Z,11.37
2019-04-04T11:41:04.600Z,12.17
2019-04-04T11:43:34.234Z,12.93
2019-04-04T11:46:03.905Z,12.87
2019-04-04T11:48:33.518Z,11.53
2019-04-04T11:51:03.150Z,12.37
2019-04-04T11:53:32.753Z,12.27
2019-04-04T11:56:02.397Z,12.53
2019-04-04T11:58:32.026Z,13.10
2019-04-04T12:01:04.319Z,14.60
2019-04-04T12:03:33.938Z,14.43
2019-04-04T12:06:03.666Z,19.07
2019-04-04T12:08:33.296Z,14.93
2019-04-04T12:11:03.252Z,15.00
2019-04-04T12:13:32.882Z,13.97
2019-04-04T12:16:02.519Z,16.80
2019-04-04T12:18:32.157Z,14.33
2019-04-04T12:21:01.767Z,19.47
2019-04-04T12:23:31.377Z,18.03
2019-04-04T12:26:01.018Z,16.33
2019-04-04T12:28:30.642Z,15.97
2019-04-04T12:31:00.450Z,12.93
2019-04-04T12:33:30.058Z,13.70
2019-04-04T12:35:59.722Z,14.10
2019-04-04T12:38:29.341Z,14.73
2019-04-04T12:40:58.954Z,14.17
2019-04-04T12:43:28.571Z,19.03
2019-04-04T12:45:58.254Z,13.37
2019-04-04T12:48:27.862Z,11.27
2019-04-04T12:50:58.437Z,12.73
2019-04-04T12:53:28.033Z,9.37
2019-04-04T12:55:57.634Z,16.37
2019-04-04T12:58:28.218Z,10.73
2019-04-04T13:00:57.854Z,10.97
2019-04-04T13:03:27.470Z,6.67
2019-04-04T13:05:57.078Z,6.70
2019-04-04T13:08:26.680Z,10.27
2019-04-04T13:10:56.281Z,8.13
2019-04-04T13:13:25.897Z,9.20
2019-04-04T13:15:55.521Z,7.73
2019-04-04T13:18:25.122Z,8.23
2019-04-04T13:20:54.834Z,10.63
2019-04-04T13:23:24.481Z,8.73
2019-04-04T13:25:55.152Z,8.93
2019-04-04T13:28:25.062Z,10.23
2019-04-04T13:30:54.705Z,7.77
2019-04-04T13:33:24.299Z,7.30
2019-04-04T13:35:53.975Z,6.83
2019-04-04T13:38:23.562Z,7.77
2019-04-04T13:40:53.318Z,5.90
2019-04-04T13:43:23.914Z,4.43
2019-04-04T13:45:53.544Z,7.50
2019-04-04T13:48:23.246Z,7.50
2019-04-04T13:50:53.642Z,6.70
2019-04-04T13:53:25.439Z,7.17
2019-04-04T13:55:56.494Z,5.70
2019-04-04T13:58:26.006Z,5.73
2019-04-04T14:00:55.625Z,5.20
2019-04-04T14:03:25.257Z,6.87
2019-04-04T14:05:54.912Z,11.90
2019-04-04T14:08:24.570Z,4.17
2019-04-04T14:10:58.380Z,3.87
2019-04-04T14:13:26.237Z,5.03
2019-04-04T14:15:56.157Z,5.13
2019-04-04T14:18:38.236Z,6.67
2019-04-04T14:21:03.999Z,6.23
2019-04-04T14:23:28.793Z,4.77
2019-04-04T14:25:59.967Z,5.63
2019-04-04T14:28:29.793Z,5.90
2019-04-04T14:30:59.631Z,4.57
2019-04-04T14:33:29.246Z,5.37
2019-04-04T14:35:58.858Z,5.37
2019-04-04T14:38:28.491Z,6.33
2019-04-04T14:41:10.216Z,9.00
2019-04-04T14:43:30.059Z,5.53
2019-04-04T14:46:00.289Z,5.03
2019-04-04T14:48:30.009Z,5.97
2019-04-04T14:50:59.715Z,5.73
2019-04-04T14:53:29.706Z,5.60
2019-04-04T14:56:01.255Z,4.97
2019-04-04T14:58:32.285Z,8.83
2019-04-04T15:01:02.045Z,5.53
2019-04-04T15:03:31.939Z,9.13
2019-04-04T15:06:02.246Z,6.70
2019-04-04T15:08:32.529Z,6.03
2019-04-04T15:11:02.727Z,5.83
2019-04-04T15:13:32.621Z,7.47
2019-04-04T15:16:12.877Z,10.63
2019-04-04T15:18:43.751Z,6.47
2019-04-04T15:21:13.762Z,9.30
2019-04-04T15:23:44.831Z,8.60
2019-04-04T15:26:15.064Z,6.60
2019-04-04T15:28:45.027Z,8.83
2019-04-04T15:31:15.289Z,6.90
2019-04-04T15:33:45.753Z,5.73
2019-04-04T15:36:15.971Z,6.17
2019-04-04T15:38:46.049Z,7.30
2019-04-04T15:41:17.137Z,12.27
2019-04-04T15:43:47.972Z,8.13
2019-04-04T15:46:18.225Z,7.73
2019-04-04T15:48:48.084Z,6.77
2019-04-04T15:51:17.890Z,7.80
2019-04-04T15:53:47.705Z,6.57
2019-04-04T15:56:17.827Z,7.03
2019-04-04T15:58:47.476Z,7.77
2019-04-04T16:01:17.277Z,8.57
2019-04-04T16:03:46.985Z,7.37
2019-04-04T16:06:16.791Z,7.23
2019-04-04T16:08:46.957Z,7.97
2019-04-04T16:11:16.986Z,6.13
2019-04-04T16:13:46.657Z,10.30
2019-04-04T16:16:16.323Z,6.10
2019-04-04T16:18:45.993Z,7.00
2019-04-04T16:21:15.701Z,7.40
2019-04-04T16:23:45.449Z,7.17
2019-04-04T16:26:15.218Z,6.40
2019-04-04T16:28:44.949Z,5.50
2019-04-04T16:31:14.722Z,7.20
2019-04-04T16:33:44.912Z,5.73
2019-04-04T16:36:14.719Z,6.33
2019-04-04T16:38:45.607Z,7.33
2019-04-04T16:41:15.745Z,6.47
2019-04-04T16:43:46.172Z,8.33
2019-04-04T16:46:26.927Z,7.80
2019-04-04T16:49:04.166Z,9.50
2019-04-04T16:51:41.302Z,6.97
2019-04-04T16:54:21.928Z,6.47
2019-04-04T16:57:00.054Z,7.77
2019-04-04T16:59:36.717Z,8.03
2019-04-04T17:02:15.167Z,6.87
2019-04-04T17:04:57.447Z,8.43
2019-04-04T17:07:34.067Z,5.93
2019-04-04T17:10:14.932Z,6.40
2019-04-04T17:12:45.576Z,6.47
2019-04-04T17:15:16.471Z,6.30
2019-04-04T17:17:51.645Z,6.97
2019-04-04T17:20:21.623Z,6.90
2019-04-04T17:22:53.178Z,6.97
2019-04-04T17:25:25.287Z,8.53
2019-04-04T17:27:59.115Z,6.80
2019-04-04T17:30:39.114Z,7.50
2019-04-04T17:33:18.451Z,6.97
2019-04-04T17:35:48.745Z,6.03
2019-04-04T17:38:22.881Z,5.57
2019-04-04T17:40:53.069Z,6.23
2019-04-04T17:43:25.291Z,6.30
2019-04-04T17:45:57.755Z,6.43
2019-04-04T17:48:38.945Z,6.17
2019-04-04T17:51:10.180Z,5.80
2019-04-04T17:53:40.254Z,6.83
2019-04-04T17:56:10.324Z,6.07
2019-04-04T17:58:40.451Z,6.43
2019-04-04T18:01:12.157Z,6.93
2019-04-04T18:03:42.111Z,8.77
2019-04-04T18:06:11.797Z,6.00
2019-04-04T18:08:41.543Z,7.33
2019-04-04T18:11:11.197Z,6.47
2019-04-04T18:13:40.938Z,5.77
2019-04-04T18:16:10.625Z,7.57
2019-04-04T18:18:40.266Z,6.20
2019-04-04T18:21:10.182Z,8.47
2019-04-04T18:23:39.850Z,6.43
2019-04-04T18:26:09.696Z,9.37
2019-04-04T18:28:39.762Z,5.40
2019-04-04T18:31:09.650Z,5.70
2019-04-04T18:33:39.381Z,7.73
2019-04-04T18:36:09.345Z,5.57
2019-04-04T18:38:39.088Z,7.63
2019-04-04T18:41:09.997Z,5.87
2019-04-04T18:43:39.970Z,8.00
2019-04-04T18:46:09.910Z,6.83
2019-04-04T18:48:39.847Z,5.97
2019-04-04T18:51:09.615Z,5.73
2019-04-04T18:53:39.608Z,6.53
2019-04-04T18:56:09.741Z,5.73
2019-04-04T18:58:39.717Z,5.80
2019-04-04T19:01:09.708Z,11.63
2019-04-04T19:03:39.513Z,7.93
2019-04-04T19:06:11.388Z,6.77
2019-04-04T19:08:41.439Z,8.93
2019-04-04T19:11:11.410Z,9.50
2019-04-04T19:13:44.422Z,8.07
2019-04-04T19:16:12.815Z,8.77
2019-04-04T19:18:42.679Z,10.83
2019-04-04T19:21:12.628Z,11.03
2019-04-04T19:23:48.973Z,10.93
2019-04-04T19:26:14.234Z,10.30
2019-04-04T19:28:44.319Z,10.47
2019-04-04T19:31:15.465Z,12.13
2019-04-04T19:33:46.963Z,12.00
2019-04-04T19:36:16.773Z,11.33
2019-04-04T19:38:46.914Z,16.83
2019-04-04T19:41:16.774Z,12.27
2019-04-04T19:43:46.691Z,16.23
2019-04-04T19:46:16.514Z,12.70
2019-04-04T19:48:48.344Z,12.93
2019-04-04T19:51:18.203Z,13.23
2019-04-04T19:53:49.212Z,12.53
2019-04-04T19:56:19.082Z,12.40
2019-04-04T19:58:48.860Z,13.90
2019-04-04T20:01:18.464Z,13.30
2019-04-04T20:03:48.071Z,13.23
2019-04-04T20:06:17.724Z,14.33
2019-04-04T20:08:50.892Z,15.00
2019-04-04T20:11:18.838Z,16.37
2019-04-04T20:13:48.480Z,14.23
2019-04-04T20:16:18.077Z,15.27
2019-04-04T20:18:47.718Z,15.47
2019-04-04T20:21:17.343Z,14.43
2019-04-04T20:23:46.966Z,16.13
2019-04-04T20:26:16.575Z,18.73
2019-04-04T20:28:46.222Z,20.83
2019-04-04T20:31:15.842Z,18.90
2019-04-04T20:33:45.460Z,20.47
2019-04-04T20:36:15.056Z,23.37
2019-04-04T20:38:44.807Z,25.93
2019-04-04T20:41:16.351Z,20.63
2019-04-04T20:43:46.895Z,25.43
2019-04-04T20:46:17.621Z,23.30
2019-04-04T20:48:47.238Z,22.77
2019-04-04T20:51:16.856Z,28.53
2019-04-04T20:53:46.540Z,25.83
2019-04-04T20:56:16.389Z,26.60
2019-04-04T20:58:46.038Z,31.30
2019-04-04T21:01:15.666Z,30.63
2019-04-04T21:03:45.298Z,26.90
2019-04-04T21:06:14.926Z,27.17
2019-04-04T21:08:44.537Z,29.63
2019-04-04T21:11:14.158Z,28.17
2019-04-04T21:13:55.473Z,33.50
2019-04-04T21:16:15.106Z,30.87
2019-04-04T21:18:44.758Z,33.53
2019-04-04T21:21:14.447Z,34.23
2019-04-04T21:23:44.181Z,34.10
2019-04-04T21:26:13.787Z,37.30
2019-04-04T21:28:43.520Z,36.73
2019-04-04T21:31:13.122Z,35.37
2019-04-04T21:33:42.735Z,37.83
2019-04-04T21:36:12.355Z,37.70
2019-04-04T21:38:41.975Z,37.87
2019-04-04T21:41:11.590Z,48.50
2019-04-04T21:43:42.298Z,40.23
2019-04-04T21:46:11.917Z,41.77
2019-04-04T21:48:41.544Z,37.90
2019-04-04T21:51:11.146Z,44.50
2019-04-04T21:53:40.752Z,43.20
2019-04-04T21:56:10.382Z,48.97
2019-04-04T21:58:40.011Z,42.80
2019-04-04T22:01:10.002Z,40.17
2019-04-04T22:03:39.618Z,46.33
2019-04-04T22:06:09.288Z,48.60
2019-04-04T22:08:38.984Z,45.40
2019-04-04T22:11:08.586Z,47.67
2019-04-04T22:13:38.206Z,46.53
2019-04-04T22:16:07.822Z,45.57
2019-04-04T22:18:37.516Z,48.87
2019-04-04T22:21:07.208Z,47.67
2019-04-04T22:23:37.005Z,48.37
2019-04-04T22:26:06.650Z,43.67
2019-04-04T22:28:36.266Z,53.70
2019-04-04T22:31:05.870Z,53.93
2019-04-04T22:33:35.574Z,50.33
2019-04-04T22:36:05.310Z,56.13
2019-04-04T22:38:34.933Z,53.83
2019-04-04T22:41:04.610Z,52.70
2019-04-04T22:43:34.289Z,52.33
2019-04-04T22:46:04.004Z,55.17
2019-04-04T22:48:33.633Z,49.13
2019-04-04T22:51:03.277Z,52.33
2019-04-04T22:53:32.880Z,54.37
2019-04-04T22:56:02.522Z,55.70
2019-04-04T22:58:32.136Z,57.17
2019-04-04T23:01:01.762Z,51.73
2019-04-04T23:03:31.538Z,56.80
2019-04-04T23:06:01.137Z,55.70
2019-04-04T23:08:30.766Z,55.00
2019-04-04T23:11:00.369Z,58.27
2019-04-04T23:13:30.027Z,60.43
2019-04-04T23:15:59.646Z,55.40
2019-04-04T23:18:29.285Z,57.83
2019-04-04T23:20:58.953Z,56.60
2019-04-04T23:23:28.565Z,53.27
2019-04-04T23:25:58.178Z,63.37
2019-04-04T23:28:27.801Z,55.63
2019-04-04T23:30:57.441Z,61.07
2019-04-04T23:33:27.078Z,70.10
2019-04-04T23:35:56.745Z,54.33
2019-04-04T23:38:26.369Z,60.40
2019-04-04T23:40:55.959Z,53.80
2019-04-04T23:43:25.582Z,52.00
2019-04-04T23:45:55.266Z,52.13
2019-04-04T23:48:24.905Z,58.63
2019-04-04T23:50:54.494Z,60.03
2019-04-04T23:53:24.132Z,52.23
2019-04-04T23:55:53.741Z,56.57
2019-04-04T23:58:23.344Z,55.13
